createdAt,value
2018-02-08T00:00:01.469Z,18.24
2018-02-08T00:01:03.930Z,18.24
2018-02-08T00:02:06.451Z,18.23
2018-02-08T00:03:08.955Z,18.22
2018-02-08T00:04:11.422Z,18.22
2018-02-08T00:05:13.898Z,18.21
2018-02-08T00:06:16.388Z,18.20
2018-02-08T00:07:18.864Z,18.20
2018-02-08T00:08:21.346Z,18.18
2018-02-08T00:09:23.809Z,18.17
2018-02-08T00:10:26.279Z,18.16
2018-02-08T00:11:28.743Z,18.16
2018-02-08T00:12:31.234Z,18.13
2018-02-08T00:13:33.735Z,18.13
2018-02-08T00:14:36.209Z,18.12
2018-02-08T00:15:38.678Z,18.10
2018-02-08T00:16:41.174Z,18.10
2018-02-08T00:17:43.651Z,18.08
2018-02-08T00:18:46.146Z,18.07
2018-02-08T00:19:48.621Z,18.07
2018-02-08T00:20:51.113Z,18.06
2018-02-08T00:21:53.583Z,18.04
2018-02-08T00:22:56.065Z,18.03
2018-02-08T00:23:58.581Z,18.02
2018-02-08T00:25:01.047Z,18.01
2018-02-08T00:26:03.520Z,18.01
2018-02-08T00:27:06.004Z,18.00
2018-02-08T00:28:08.470Z,17.99
2018-02-08T00:29:10.977Z,17.98
2018-02-08T00:30:13.468Z,17.97
2018-02-08T00:31:15.935Z,17.96
2018-02-08T00:32:18.424Z,17.95
2018-02-08T00:33:20.915Z,17.95
2018-02-08T00:34:23.439Z,17.94
2018-02-08T00:35:25.941Z,17.95
2018-02-08T00:36:28.406Z,17.95
2018-02-08T00:37:30.876Z,17.95
2018-02-08T00:38:33.355Z,17.94
2018-02-08T00:39:35.850Z,17.93
2018-02-08T00:40:38.330Z,17.92
2018-02-08T00:41:40.816Z,17.92
2018-02-08T00:42:43.301Z,17.91
2018-02-08T00:43:45.774Z,17.90
2018-02-08T00:44:48.283Z,17.90
2018-02-08T00:45:50.750Z,17.90
2018-02-08T00:46:53.227Z,17.89
2018-02-08T00:47:55.717Z,17.88
2018-02-08T00:48:58.209Z,17.89
2018-02-08T00:50:00.707Z,17.87
2018-02-08T00:51:03.194Z,17.87
2018-02-08T00:52:05.666Z,17.86
2018-02-08T00:53:08.151Z,17.85
2018-02-08T00:54:10.619Z,17.85
2018-02-08T00:55:13.124Z,17.84
2018-02-08T00:56:15.614Z,17.83
2018-02-08T00:57:18.091Z,17.82
2018-02-08T00:58:20.559Z,17.81
2018-02-08T00:59:23.014Z,17.81
2018-02-08T01:00:25.525Z,17.80
2018-02-08T01:01:28.013Z,17.80
2018-02-08T01:02:30.478Z,17.80
2018-02-08T01:03:32.964Z,17.82
2018-02-08T01:04:35.444Z,17.83
2018-02-08T01:05:37.944Z,17.84
2018-02-08T01:06:40.415Z,17.85
2018-02-08T01:07:42.890Z,17.86
2018-02-08T01:08:45.380Z,17.86
2018-02-08T01:09:47.871Z,17.87
2018-02-08T01:10:50.368Z,17.87
2018-02-08T01:11:52.864Z,17.87
2018-02-08T01:12:55.338Z,17.87
2018-02-08T01:13:57.817Z,17.87
2018-02-08T01:15:00.288Z,17.86
2018-02-08T01:16:02.782Z,17.85
2018-02-08T01:17:05.257Z,17.84
2018-02-08T01:18:07.732Z,17.82
2018-02-08T01:19:10.195Z,17.80
2018-02-08T01:20:12.677Z,17.78
2018-02-08T01:21:15.172Z,17.76
2018-02-08T01:22:17.664Z,17.74
2018-02-08T01:23:20.152Z,17.72
2018-02-08T01:24:22.640Z,17.70
2018-02-08T01:25:25.130Z,17.70
2018-02-08T01:26:27.645Z,17.67
2018-02-08T01:27:30.114Z,17.66
2018-02-08T01:28:32.596Z,17.65
2018-02-08T01:29:35.068Z,17.64
2018-02-08T01:30:37.571Z,17.62
2018-02-08T01:31:40.062Z,17.61
2018-02-08T01:32:42.544Z,17.60
2018-02-08T01:33:45.016Z,17.58
2018-02-08T01:34:47.576Z,17.57
2018-02-08T01:35:50.065Z,17.57
2018-02-08T01:36:52.576Z,17.57
2018-02-08T01:37:55.051Z,17.56
2018-02-08T01:38:57.536Z,17.56
2018-02-08T01:40:00.026Z,17.56
2018-02-08T01:41:02.501Z,17.55
2018-02-08T01:42:05.005Z,17.55
2018-02-08T01:43:07.479Z,17.55
2018-02-08T01:44:09.961Z,17.54
2018-02-08T01:45:12.435Z,17.53
2018-02-08T01:46:14.926Z,17.53
2018-02-08T01:47:17.418Z,17.53
2018-02-08T01:48:19.905Z,17.52
2018-02-08T01:49:40.772Z,17.52
2018-02-08T01:50:43.248Z,17.51
2018-02-08T01:51:45.719Z,17.51
2018-02-08T01:52:48.228Z,17.54
2018-02-08T01:53:50.702Z,17.58
2018-02-08T01:54:53.174Z,17.63
2018-02-08T01:55:55.646Z,17.72
2018-02-08T01:56:58.160Z,17.78
2018-02-08T01:58:00.666Z,17.86
2018-02-08T01:59:03.134Z,17.93
2018-02-08T02:00:05.648Z,17.98
2018-02-08T02:01:08.133Z,18.02
2018-02-08T02:02:10.622Z,18.06
2018-02-08T02:03:13.119Z,18.08
2018-02-08T02:04:15.582Z,18.10
2018-02-08T02:05:18.043Z,18.13
2018-02-08T02:06:20.533Z,18.15
2018-02-08T02:07:23.015Z,18.14
2018-02-08T02:08:25.506Z,18.15
2018-02-08T02:09:27.974Z,18.17
2018-02-08T02:10:30.457Z,18.16
2018-02-08T02:11:32.927Z,18.16
2018-02-08T02:12:35.409Z,18.16
2018-02-08T02:13:37.910Z,18.16
2018-02-08T02:14:40.391Z,18.16
2018-02-08T02:15:42.880Z,18.14
2018-02-08T02:16:45.365Z,18.13
2018-02-08T02:17:47.837Z,18.13
2018-02-08T02:18:50.322Z,18.12
2018-02-08T02:19:52.805Z,18.11
2018-02-08T02:20:55.325Z,18.09
2018-02-08T02:21:57.798Z,18.09
2018-02-08T02:23:00.263Z,18.08
2018-02-08T02:24:02.758Z,18.06
2018-02-08T02:25:05.233Z,18.05
2018-02-08T02:26:07.726Z,18.04
2018-02-08T02:27:10.202Z,18.03
2018-02-08T02:28:12.671Z,18.03
2018-02-08T02:29:15.177Z,18.03
2018-02-08T02:30:17.650Z,18.02
2018-02-08T02:31:20.142Z,18.02
2018-02-08T02:32:22.629Z,18.02
2018-02-08T02:33:25.098Z,18.02
2018-02-08T02:34:27.601Z,18.00
2018-02-08T02:35:30.089Z,18.00
2018-02-08T02:36:32.562Z,17.98
2018-02-08T02:37:35.053Z,17.98
2018-02-08T02:38:37.526Z,17.97
2018-02-08T02:39:40.037Z,17.97
2018-02-08T02:40:42.518Z,17.96
2018-02-08T02:41:45.005Z,17.95
2018-02-08T02:42:47.492Z,17.93
2018-02-08T02:43:49.976Z,17.93
2018-02-08T02:44:52.485Z,17.92
2018-02-08T02:45:54.975Z,17.89
2018-02-08T02:46:57.459Z,17.88
2018-02-08T02:47:59.930Z,17.86
2018-02-08T02:49:02.430Z,17.84
2018-02-08T02:50:04.940Z,17.83
2018-02-08T02:51:07.410Z,17.80
2018-02-08T02:52:09.899Z,17.78
2018-02-08T02:53:12.385Z,17.79
2018-02-08T02:54:14.858Z,17.77
2018-02-08T02:55:17.374Z,17.75
2018-02-08T02:56:19.847Z,17.74
2018-02-08T02:57:22.333Z,17.73
2018-02-08T02:58:24.802Z,17.71
2018-02-08T02:59:27.293Z,17.69
2018-02-08T03:00:29.783Z,17.70
2018-02-08T03:01:32.273Z,17.71
2018-02-08T03:02:34.752Z,17.76
2018-02-08T03:03:37.241Z,17.86
2018-02-08T03:04:39.720Z,17.90
2018-02-08T03:05:42.246Z,18.01
2018-02-08T03:06:44.728Z,18.08
2018-02-08T03:07:47.198Z,18.12
2018-02-08T03:08:49.674Z,18.16
2018-02-08T03:09:52.147Z,18.20
2018-02-08T03:10:54.631Z,18.22
2018-02-08T03:11:57.113Z,18.25
2018-02-08T03:12:59.608Z,18.26
2018-02-08T03:14:02.100Z,18.28
2018-02-08T03:15:04.567Z,18.28
2018-02-08T03:16:07.074Z,18.28
2018-02-08T03:17:09.551Z,18.29
2018-02-08T03:18:12.083Z,18.27
2018-02-08T03:19:14.567Z,18.27
2018-02-08T03:20:17.041Z,18.27
2018-02-08T03:21:19.548Z,18.25
2018-02-08T03:22:22.028Z,18.22
2018-02-08T03:23:24.508Z,18.21
2018-02-08T03:24:27.090Z,18.19
2018-02-08T03:25:29.595Z,18.17
2018-02-08T03:26:32.094Z,18.16
2018-02-08T03:27:34.572Z,18.15
2018-02-08T03:28:37.073Z,18.14
2018-02-08T03:29:39.553Z,18.12
2018-02-08T03:32:23.969Z,18.08
2018-02-08T03:33:26.473Z,18.07
2018-02-08T03:34:28.938Z,18.07
2018-02-08T03:35:31.408Z,18.06
2018-02-08T03:36:33.909Z,18.04
2018-02-08T03:37:36.386Z,18.02
2018-02-08T03:38:38.868Z,18.01
2018-02-08T03:39:41.377Z,17.99
2018-02-08T03:40:43.869Z,17.98
2018-02-08T03:41:46.365Z,17.97
2018-02-08T03:42:48.835Z,17.95
2018-02-08T03:43:51.316Z,17.95
2018-02-08T03:44:53.796Z,17.93
2018-02-08T03:45:56.281Z,17.91
2018-02-08T03:46:58.743Z,17.90
2018-02-08T03:48:01.206Z,17.89
2018-02-08T03:49:03.709Z,17.87
2018-02-08T03:50:06.197Z,17.86
2018-02-08T03:51:08.681Z,17.86
2018-02-08T03:52:11.155Z,17.86
2018-02-08T03:53:13.618Z,17.90
2018-02-08T03:54:16.105Z,17.93
2018-02-08T03:55:18.571Z,17.99
2018-02-08T03:56:21.049Z,18.10
2018-02-08T03:57:23.519Z,18.15
2018-02-08T03:58:26.006Z,18.22
2018-02-08T03:59:28.493Z,18.29
2018-02-08T04:00:30.976Z,18.33
2018-02-08T04:01:33.442Z,18.36
2018-02-08T04:02:35.930Z,18.37
2018-02-08T04:03:38.403Z,18.39
2018-02-08T04:04:40.888Z,18.39
2018-02-08T04:05:43.378Z,18.41
2018-02-08T04:06:45.865Z,18.41
2018-02-08T04:07:48.334Z,18.41
2018-02-08T04:08:50.802Z,18.39
2018-02-08T04:09:53.294Z,18.38
2018-02-08T04:10:55.769Z,18.37
2018-02-08T04:11:58.251Z,18.36
2018-02-08T04:13:00.722Z,18.33
2018-02-08T04:14:03.186Z,18.32
2018-02-08T04:15:05.669Z,18.30
2018-02-08T04:16:08.128Z,18.27
2018-02-08T04:17:10.601Z,18.26
2018-02-08T04:18:13.084Z,18.23
2018-02-08T04:19:15.563Z,18.21
2018-02-08T04:20:18.056Z,18.20
2018-02-08T04:21:20.560Z,18.19
2018-02-08T04:22:23.059Z,18.18
2018-02-08T04:23:25.554Z,18.17
2018-02-08T04:24:28.041Z,18.15
2018-02-08T04:25:30.514Z,18.13
2018-02-08T04:26:32.983Z,18.11
2018-02-08T04:27:35.477Z,18.09
2018-02-08T04:28:37.965Z,18.08
2018-02-08T04:29:40.454Z,18.06
2018-02-08T04:30:42.940Z,18.03
2018-02-08T04:31:45.406Z,18.02
2018-02-08T04:32:47.894Z,18.00
2018-02-08T04:33:50.352Z,17.98
2018-02-08T04:34:52.824Z,17.97
2018-02-08T04:35:55.301Z,17.95
2018-02-08T04:36:57.780Z,17.94
2018-02-08T04:38:00.260Z,17.93
2018-02-08T04:39:14.532Z,17.92
2018-02-08T04:40:28.827Z,17.90
2018-02-08T04:41:43.110Z,17.89
2018-02-08T04:42:57.454Z,17.91
2018-02-08T04:44:18.603Z,17.98
2018-02-08T04:45:32.950Z,18.12
2018-02-08T04:46:47.406Z,18.24
2018-02-08T04:48:07.643Z,18.29
2018-02-08T04:49:10.131Z,18.34
2018-02-08T04:50:12.612Z,18.41
2018-02-08T04:51:15.120Z,18.45
2018-02-08T04:52:17.616Z,18.47
2018-02-08T04:53:20.097Z,18.50
2018-02-08T04:54:22.585Z,18.53
2018-02-08T04:55:25.072Z,18.56
2018-02-08T04:56:27.562Z,18.60
2018-02-08T04:57:30.021Z,18.63
2018-02-08T04:58:32.495Z,18.63
2018-02-08T04:59:34.982Z,18.61
2018-02-08T05:00:37.477Z,18.62
2018-02-08T05:01:39.983Z,18.59
2018-02-08T05:02:42.454Z,18.58
2018-02-08T05:03:44.950Z,18.57
2018-02-08T05:04:47.438Z,18.57
2018-02-08T05:05:49.918Z,18.57
2018-02-08T05:06:52.418Z,18.55
2018-02-08T05:07:54.886Z,18.52
2018-02-08T05:08:57.362Z,18.49
2018-02-08T05:09:59.856Z,18.44
2018-02-08T05:11:02.336Z,18.42
2018-02-08T05:12:04.849Z,18.38
2018-02-08T05:13:07.333Z,18.35
2018-02-08T05:14:09.810Z,18.33
2018-02-08T05:15:12.277Z,18.30
2018-02-08T05:16:14.756Z,18.30
2018-02-08T05:17:17.436Z,18.27
2018-02-08T05:18:19.924Z,18.24
2018-02-08T05:19:22.405Z,18.21
2018-02-08T05:20:24.876Z,18.20
2018-02-08T05:21:27.339Z,18.20
2018-02-08T05:22:29.833Z,18.21
2018-02-08T05:23:32.315Z,18.20
2018-02-08T05:24:34.799Z,18.18
2018-02-08T05:25:37.282Z,18.16
2018-02-08T05:26:39.768Z,18.13
2018-02-08T05:27:42.250Z,18.12
2018-02-08T05:28:44.728Z,18.11
2018-02-08T05:29:47.214Z,18.18
2018-02-08T05:30:49.704Z,18.21
2018-02-08T05:31:52.193Z,18.28
2018-02-08T05:32:54.727Z,18.34
2018-02-08T05:33:57.210Z,18.42
2018-02-08T05:34:59.682Z,18.45
2018-02-08T05:36:02.177Z,18.48
2018-02-08T05:37:04.677Z,18.53
2018-02-08T05:38:07.184Z,18.54
2018-02-08T05:39:09.663Z,18.55
2018-02-08T05:40:12.161Z,18.54
2018-02-08T05:41:14.652Z,18.54
2018-02-08T05:42:17.148Z,18.53
2018-02-08T05:43:19.650Z,18.53
2018-02-08T05:44:22.115Z,18.52
2018-02-08T05:45:24.601Z,18.50
2018-02-08T05:46:27.100Z,18.46
2018-02-08T05:47:29.563Z,18.43
2018-02-08T05:48:32.068Z,18.42
2018-02-08T05:49:34.534Z,18.38
2018-02-08T05:50:37.002Z,18.35
2018-02-08T05:51:39.458Z,18.32
2018-02-08T05:52:41.922Z,18.30
2018-02-08T05:53:44.403Z,18.26
2018-02-08T05:54:46.867Z,18.23
2018-02-08T05:55:49.339Z,18.20
2018-02-08T05:56:51.856Z,18.17
2018-02-08T05:57:54.326Z,18.14
2018-02-08T05:58:56.837Z,18.11
2018-02-08T05:59:59.311Z,18.08
2018-02-08T06:01:01.782Z,18.03
2018-02-08T06:02:04.260Z,18.02
2018-02-08T06:03:06.730Z,18.00
2018-02-08T06:04:09.240Z,17.97
2018-02-08T06:05:11.722Z,17.95
2018-02-08T06:06:14.191Z,17.92
2018-02-08T06:07:16.671Z,17.89
2018-02-08T06:08:19.138Z,17.87
2018-02-08T06:09:21.645Z,17.85
2018-02-08T06:10:24.133Z,17.83
2018-02-08T06:11:26.609Z,17.85
2018-02-08T06:12:29.090Z,17.91
2018-02-08T06:13:31.593Z,17.95
2018-02-08T06:14:34.096Z,18.07
2018-02-08T06:15:36.582Z,18.11
2018-02-08T06:16:39.061Z,18.21
2018-02-08T06:17:41.536Z,18.27
2018-02-08T06:18:44.012Z,18.31
2018-02-08T06:19:46.525Z,18.33
2018-02-08T06:20:49.010Z,18.36
2018-02-08T06:21:51.494Z,18.39
2018-02-08T06:22:53.968Z,18.40
2018-02-08T06:23:56.422Z,18.40
2018-02-08T06:24:58.922Z,18.40
2018-02-08T06:26:01.415Z,18.39
2018-02-08T06:27:03.908Z,18.37
2018-02-08T06:28:06.424Z,18.37
2018-02-08T06:29:08.908Z,18.34
2018-02-08T06:30:11.398Z,18.31
2018-02-08T06:31:13.889Z,18.29
2018-02-08T06:32:16.502Z,18.26
2018-02-08T06:33:18.976Z,18.24
2018-02-08T06:34:21.459Z,18.21
2018-02-08T06:35:23.973Z,18.18
2018-02-08T06:36:26.472Z,18.15
2018-02-08T06:37:28.944Z,18.12
2018-02-08T06:38:31.453Z,18.09
2018-02-08T06:39:33.918Z,18.08
2018-02-08T06:40:36.423Z,18.05
2018-02-08T06:41:38.933Z,18.02
2018-02-08T06:42:41.421Z,18.00
2018-02-08T06:43:43.913Z,17.98
2018-02-08T06:44:46.417Z,17.95
2018-02-08T06:45:48.919Z,17.93
2018-02-08T06:46:51.413Z,17.92
2018-02-08T06:47:53.901Z,17.90
2018-02-08T06:48:56.384Z,17.91
2018-02-08T06:49:58.862Z,17.95
2018-02-08T06:51:01.373Z,17.99
2018-02-08T06:52:03.851Z,18.08
2018-02-08T06:53:06.347Z,18.15
2018-02-08T06:54:08.802Z,18.21
2018-02-08T06:55:11.297Z,18.27
2018-02-08T06:56:13.801Z,18.34
2018-02-08T06:57:16.288Z,18.37
2018-02-08T06:58:18.772Z,18.40
2018-02-08T06:59:21.239Z,18.42
2018-02-08T07:00:23.724Z,18.45
2018-02-08T07:01:26.237Z,18.47
2018-02-08T07:02:28.720Z,18.47
2018-02-08T07:03:31.288Z,18.47
2018-02-08T07:04:33.776Z,18.46
2018-02-08T07:05:36.259Z,18.45
2018-02-08T07:06:38.752Z,18.44
2018-02-08T07:07:41.243Z,18.40
2018-02-08T07:08:43.706Z,18.39
2018-02-08T07:09:46.174Z,18.36
2018-02-08T07:10:48.643Z,18.34
2018-02-08T07:11:51.149Z,18.31
2018-02-08T07:12:53.639Z,18.28
2018-02-08T07:13:56.110Z,18.25
2018-02-08T07:14:58.570Z,18.24
2018-02-08T07:16:01.044Z,18.21
2018-02-08T07:17:03.535Z,18.18
2018-02-08T07:18:06.031Z,18.16
2018-02-08T07:19:08.517Z,18.11
2018-02-08T07:20:11.795Z,18.10
2018-02-08T07:21:14.267Z,18.07
2018-02-08T07:22:16.761Z,18.04
2018-02-08T07:23:19.258Z,18.01
2018-02-08T07:24:21.744Z,18.00
2018-02-08T07:25:24.225Z,17.98
2018-02-08T07:26:26.719Z,17.96
2018-02-08T07:27:29.225Z,17.99
2018-02-08T07:28:31.775Z,18.06
2018-02-08T07:29:34.242Z,18.11
2018-02-08T07:30:36.727Z,18.22
2018-02-08T07:31:39.216Z,18.28
2018-02-08T07:32:41.725Z,18.34
2018-02-08T07:33:44.199Z,18.40
2018-02-08T07:34:46.676Z,18.44
2018-02-08T07:35:49.163Z,18.49
2018-02-08T07:36:51.653Z,18.51
2018-02-08T07:37:54.177Z,18.52
2018-02-08T07:38:56.954Z,18.53
2018-02-08T07:39:59.486Z,18.55
2018-02-08T07:41:01.973Z,18.54
2018-02-08T07:42:04.439Z,18.53
2018-02-08T07:43:06.945Z,18.52
2018-02-08T07:44:09.522Z,18.50
2018-02-08T07:45:11.990Z,18.48
2018-02-08T07:46:14.473Z,18.45
2018-02-08T07:47:16.947Z,18.43
2018-02-08T07:48:19.456Z,18.40
2018-02-08T07:49:21.946Z,18.37
2018-02-08T07:50:24.483Z,18.35
2018-02-08T07:51:26.965Z,18.32
2018-02-08T07:52:29.637Z,18.29
2018-02-08T07:53:32.140Z,18.26
2018-02-08T07:54:34.629Z,18.22
2018-02-08T07:55:37.170Z,18.19
2018-02-08T07:56:39.660Z,18.17
2018-02-08T07:57:42.151Z,18.14
2018-02-08T07:58:44.648Z,18.12
2018-02-08T07:59:47.129Z,18.11
2018-02-08T08:00:49.621Z,18.12
2018-02-08T08:01:52.098Z,18.13
2018-02-08T08:02:54.587Z,18.15
2018-02-08T08:03:57.130Z,18.24
2018-02-08T08:04:59.594Z,18.32
2018-02-08T08:06:02.064Z,18.40
2018-02-08T08:07:04.548Z,18.49
2018-02-08T08:08:07.044Z,18.53
2018-02-08T08:09:09.553Z,18.51
2018-02-08T08:10:12.018Z,18.47
2018-02-08T08:11:14.513Z,18.43
2018-02-08T08:12:17.009Z,18.36
2018-02-08T08:13:19.488Z,18.30
2018-02-08T08:14:22.011Z,18.23
2018-02-08T08:15:24.498Z,18.17
2018-02-08T08:16:26.985Z,18.10
2018-02-08T08:17:29.463Z,18.04
2018-02-08T08:18:31.945Z,17.95
2018-02-08T08:19:34.461Z,17.88
2018-02-08T08:20:36.930Z,17.81
2018-02-08T08:21:39.433Z,17.73
2018-02-08T08:22:41.903Z,17.67
2018-02-08T08:23:44.401Z,17.63
2018-02-08T08:24:46.904Z,17.57
2018-02-08T08:25:49.390Z,17.54
2018-02-08T08:26:51.892Z,17.52
2018-02-08T08:27:54.386Z,17.51
2018-02-08T08:28:56.875Z,17.48
2018-02-08T08:29:59.422Z,17.48
2018-02-08T08:31:01.930Z,17.47
2018-02-08T08:32:04.416Z,17.48
2018-02-08T08:33:07.223Z,17.51
2018-02-08T08:34:11.631Z,17.49
2018-02-08T08:35:14.151Z,17.50
2018-02-08T08:36:16.961Z,17.50
2018-02-08T08:37:19.591Z,17.50
2018-02-08T08:38:22.434Z,17.51
2018-02-08T08:39:24.938Z,17.48
2018-02-08T08:40:27.438Z,17.46
2018-02-08T08:41:30.899Z,17.43
2018-02-08T08:42:33.398Z,17.41
2018-02-08T08:43:35.879Z,17.39
2018-02-08T08:44:39.920Z,17.38
2018-02-08T08:45:42.774Z,17.37
2018-02-08T08:46:45.337Z,17.35
2018-02-08T08:47:47.810Z,17.36
2018-02-08T08:48:50.298Z,17.38
2018-02-08T08:49:52.773Z,17.40
2018-02-08T08:50:55.293Z,17.43
2018-02-08T08:51:58.212Z,17.40
2018-02-08T08:53:00.715Z,17.38
2018-02-08T08:54:03.191Z,17.38
2018-02-08T08:55:06.052Z,17.38
2018-02-08T08:56:08.573Z,17.40
2018-02-08T08:57:11.051Z,17.40
2018-02-08T08:58:13.542Z,17.40
2018-02-08T08:59:16.053Z,17.38
2018-02-08T09:00:18.531Z,17.36
2018-02-08T09:01:21.051Z,17.34
2018-02-08T09:02:23.549Z,17.30
2018-02-08T09:03:26.044Z,17.26
2018-02-08T09:04:28.539Z,17.24
2018-02-08T09:05:31.033Z,17.21
2018-02-08T09:06:33.549Z,17.19
2018-02-08T09:07:36.041Z,17.14
2018-02-08T09:08:38.533Z,17.11
2018-02-08T09:09:41.018Z,17.11
2018-02-08T09:10:43.499Z,17.14
2018-02-08T09:11:45.999Z,17.22
2018-02-08T09:12:48.491Z,17.30
2018-02-08T09:13:50.971Z,17.35
2018-02-08T09:14:53.445Z,17.34
2018-02-08T09:15:55.929Z,17.34
2018-02-08T09:16:58.510Z,17.35
2018-02-08T09:18:01.015Z,17.36
2018-02-08T09:19:03.509Z,17.37
2018-02-08T09:20:06.159Z,17.37
2018-02-08T09:21:08.640Z,17.38
2018-02-08T09:22:11.204Z,17.38
2018-02-08T09:23:13.690Z,17.37
2018-02-08T09:24:16.183Z,17.37
2018-02-08T09:25:18.663Z,17.36
2018-02-08T09:26:21.148Z,17.31
2018-02-08T09:27:23.682Z,17.27
2018-02-08T09:28:26.172Z,17.22
2018-02-08T09:29:28.665Z,17.18
2018-02-08T09:30:31.597Z,17.17
2018-02-08T09:31:34.130Z,17.19
2018-02-08T09:32:36.644Z,17.25
2018-02-08T09:33:39.145Z,17.34
2018-02-08T09:34:42.920Z,17.41
2018-02-08T09:35:45.403Z,17.51
2018-02-08T09:36:47.890Z,17.62
2018-02-08T09:37:50.413Z,17.73
2018-02-08T09:38:52.997Z,17.79
2018-02-08T09:39:55.488Z,17.90
2018-02-08T09:40:58.065Z,17.96
2018-02-08T09:42:00.558Z,18.02
2018-02-08T09:43:03.138Z,18.05
2018-02-08T09:44:06.273Z,18.08
2018-02-08T09:45:12.353Z,18.11
2018-02-08T09:46:14.918Z,18.13
2018-02-08T09:47:17.412Z,18.12
2018-02-08T09:48:19.934Z,18.13
2018-02-08T09:49:22.509Z,18.14
2018-02-08T09:50:25.007Z,18.12
2018-02-08T09:51:27.543Z,18.10
2018-02-08T09:52:30.036Z,18.10
2018-02-08T09:53:32.547Z,18.08
2018-02-08T09:54:35.033Z,18.05
2018-02-08T09:55:37.543Z,18.01
2018-02-08T09:56:40.037Z,17.99
2018-02-08T09:57:42.519Z,17.96
2018-02-08T09:58:45.040Z,17.93
2018-02-08T09:59:47.533Z,17.91
2018-02-08T10:00:50.018Z,17.89
2018-02-08T10:01:52.506Z,17.87
2018-02-08T10:02:55.158Z,17.85
2018-02-08T10:03:57.911Z,17.82
2018-02-08T10:05:00.403Z,17.78
2018-02-08T10:06:02.891Z,17.76
2018-02-08T10:07:05.394Z,17.74
2018-02-08T10:08:07.884Z,17.72
2018-02-08T10:09:10.400Z,17.70
2018-02-08T10:10:12.898Z,17.68
2018-02-08T10:11:15.388Z,17.67
2018-02-08T10:12:17.873Z,17.65
2018-02-08T10:13:20.351Z,17.62
2018-02-08T10:14:22.878Z,17.61
2018-02-08T10:15:25.547Z,17.58
2018-02-08T10:16:28.069Z,17.55
2018-02-08T10:17:30.998Z,17.54
2018-02-08T10:18:33.544Z,17.52
2018-02-08T10:19:37.005Z,17.51
2018-02-08T10:20:39.495Z,17.52
2018-02-08T10:21:41.990Z,17.51
2018-02-08T10:22:44.505Z,17.51
2018-02-08T10:23:47.005Z,17.51
2018-02-08T10:24:49.529Z,17.51
2018-02-08T10:25:52.015Z,17.52
2018-02-08T10:26:54.494Z,17.53
2018-02-08T10:27:56.993Z,17.54
2018-02-08T10:28:59.504Z,17.55
2018-02-08T10:30:02.015Z,17.57
2018-02-08T10:31:04.498Z,17.58
2018-02-08T10:32:06.978Z,17.59
2018-02-08T10:33:09.476Z,17.59
2018-02-08T10:34:11.973Z,17.60
2018-02-08T10:35:14.462Z,17.61
2018-02-08T10:36:16.951Z,17.61
2018-02-08T10:37:19.449Z,17.61
2018-02-08T10:38:21.932Z,17.61
2018-02-08T10:39:24.418Z,17.61
2018-02-08T10:40:26.925Z,17.62
2018-02-08T10:41:29.425Z,17.62
2018-02-08T10:42:31.922Z,17.61
2018-02-08T10:43:34.408Z,17.62
2018-02-08T10:44:36.909Z,17.62
2018-02-08T10:45:39.421Z,17.62
2018-02-08T10:46:41.903Z,17.63
2018-02-08T10:47:44.396Z,17.62
2018-02-08T10:48:46.900Z,17.62
2018-02-08T10:49:49.386Z,17.62
2018-02-08T10:50:51.896Z,17.62
2018-02-08T10:52:58.614Z,17.61
2018-02-08T10:54:01.114Z,17.62
2018-02-08T10:55:03.609Z,17.62
2018-02-08T10:56:06.111Z,17.62
2018-02-08T10:57:08.595Z,17.60
2018-02-08T10:58:11.096Z,17.60
2018-02-08T10:59:13.582Z,17.60
2018-02-08T11:00:16.078Z,17.60
2018-02-08T11:01:18.600Z,17.60
2018-02-08T11:02:21.087Z,17.59
2018-02-08T11:03:23.568Z,17.59
2018-02-08T11:04:26.100Z,17.59
2018-02-08T11:05:28.610Z,17.58
2018-02-08T11:06:31.112Z,17.59
2018-02-08T11:07:33.621Z,17.58
2018-02-08T11:08:36.114Z,17.58
2018-02-08T11:09:38.604Z,17.59
2018-02-08T11:10:41.080Z,17.57
2018-02-08T11:11:43.588Z,17.58
2018-02-08T11:12:46.085Z,17.59
2018-02-08T11:13:48.567Z,17.58
2018-02-08T11:14:51.044Z,17.58
2018-02-08T11:15:53.522Z,17.58
2018-02-08T11:16:56.050Z,17.57
2018-02-08T11:17:58.561Z,17.58
2018-02-08T11:19:01.049Z,17.57
2018-02-08T11:20:03.531Z,17.56
2018-02-08T11:21:06.022Z,17.57
2018-02-08T11:22:08.541Z,17.59
2018-02-08T11:23:11.033Z,17.60
2018-02-08T11:24:13.547Z,17.63
2018-02-08T11:25:16.035Z,17.64
2018-02-08T11:26:18.567Z,17.66
2018-02-08T11:27:21.065Z,17.68
2018-02-08T11:28:23.561Z,17.68
2018-02-08T11:29:26.058Z,17.69
2018-02-08T11:30:28.549Z,17.71
2018-02-08T11:31:31.031Z,17.71
2018-02-08T11:32:33.534Z,17.73
2018-02-08T11:33:36.032Z,17.72
2018-02-08T11:34:38.532Z,17.73
2018-02-08T11:35:41.028Z,17.73
2018-02-08T11:36:43.511Z,17.73
2018-02-08T11:37:46.011Z,17.74
2018-02-08T11:38:48.495Z,17.74
2018-02-08T11:39:51.060Z,17.74
2018-02-08T11:40:53.539Z,17.76
2018-02-08T11:41:56.029Z,17.75
2018-02-08T11:42:58.566Z,17.76
2018-02-08T11:44:01.128Z,17.76
2018-02-08T11:45:03.631Z,17.76
2018-02-08T11:46:06.124Z,17.76
2018-02-08T11:47:08.621Z,17.75
2018-02-08T11:48:11.203Z,17.75
2018-02-08T11:49:13.701Z,17.75
2018-02-08T11:50:16.207Z,17.75
2018-02-08T11:51:18.709Z,17.75
2018-02-08T11:52:21.209Z,17.75
2018-02-08T11:53:23.728Z,17.75
2018-02-08T11:54:26.230Z,17.75
2018-02-08T11:55:28.768Z,17.74
2018-02-08T11:56:31.310Z,17.74
2018-02-08T11:57:33.807Z,17.74
2018-02-08T11:58:36.330Z,17.75
2018-02-08T11:59:38.825Z,17.76
2018-02-08T12:00:41.322Z,17.80
2018-02-08T12:01:43.802Z,17.87
2018-02-08T12:02:46.310Z,17.96
2018-02-08T12:03:48.943Z,18.16
2018-02-08T12:04:51.441Z,18.24
2018-02-08T12:05:53.919Z,18.43
2018-02-08T12:06:56.427Z,18.60
2018-02-08T12:07:58.934Z,18.76
2018-02-08T12:09:01.478Z,18.90
2018-02-08T12:10:03.977Z,19.02
2018-02-08T12:11:06.456Z,19.10
2018-02-08T12:12:08.967Z,19.16
2018-02-08T12:13:11.477Z,19.26
2018-02-08T12:14:13.994Z,19.30
2018-02-08T12:15:16.514Z,19.34
2018-02-08T12:16:19.031Z,19.38
2018-02-08T12:17:21.522Z,19.37
2018-02-08T12:18:24.368Z,19.36
2018-02-08T12:19:27.027Z,19.38
2018-02-08T12:20:29.582Z,19.42
2018-02-08T12:21:32.097Z,19.48
2018-02-08T12:22:34.570Z,19.62
2018-02-08T12:23:37.049Z,19.71
2018-02-08T12:24:39.548Z,19.75
2018-02-08T12:25:42.030Z,19.79
2018-02-08T12:26:44.517Z,19.92
2018-02-08T12:27:46.990Z,19.92
2018-02-08T12:28:49.478Z,19.93
2018-02-08T12:29:51.947Z,19.95
2018-02-08T12:30:54.423Z,19.97
2018-02-08T12:31:56.904Z,19.98
2018-02-08T12:32:59.401Z,19.97
2018-02-08T12:34:01.964Z,19.95
2018-02-08T12:35:04.448Z,19.92
2018-02-08T12:36:06.938Z,19.90
2018-02-08T12:37:09.426Z,19.86
2018-02-08T12:38:11.999Z,19.86
2018-02-08T12:39:14.471Z,19.87
2018-02-08T12:40:16.965Z,19.92
2018-02-08T12:41:19.454Z,19.98
2018-02-08T12:42:21.923Z,20.03
2018-02-08T12:43:24.394Z,20.06
2018-02-08T12:44:26.860Z,20.11
2018-02-08T12:45:29.323Z,20.14
2018-02-08T12:46:31.799Z,20.17
2018-02-08T12:47:34.266Z,20.20
2018-02-08T12:48:36.752Z,20.18
2018-02-08T12:49:39.242Z,20.18
2018-02-08T12:50:41.801Z,20.15
2018-02-08T12:51:44.267Z,20.15
2018-02-08T12:52:46.739Z,20.08
2018-02-08T12:53:49.235Z,20.06
2018-02-08T12:54:51.724Z,20.04
2018-02-08T12:55:54.206Z,20.04
2018-02-08T12:56:56.675Z,20.05
2018-02-08T12:57:59.314Z,20.08
2018-02-08T12:59:01.780Z,20.16
2018-02-08T13:00:04.256Z,20.17
2018-02-08T13:01:06.745Z,20.22
2018-02-08T13:02:09.233Z,20.29
2018-02-08T13:03:11.720Z,20.33
2018-02-08T13:04:14.210Z,20.32
2018-02-08T13:05:16.708Z,20.32
2018-02-08T13:06:19.175Z,20.32
2018-02-08T13:07:21.643Z,20.30
2018-02-08T13:08:24.133Z,20.28
2018-02-08T13:09:26.618Z,20.26
2018-02-08T13:10:29.100Z,20.23
2018-02-08T13:11:31.570Z,20.19
2018-02-08T13:12:34.082Z,20.17
2018-02-08T13:13:36.562Z,20.19
2018-02-08T13:14:39.030Z,20.22
2018-02-08T13:15:41.506Z,20.28
2018-02-08T13:16:44.062Z,20.34
2018-02-08T13:17:46.526Z,20.37
2018-02-08T13:18:49.009Z,20.41
2018-02-08T13:19:51.481Z,20.41
2018-02-08T13:20:53.954Z,20.43
2018-02-08T13:21:56.451Z,20.44
2018-02-08T13:22:58.941Z,20.45
2018-02-08T13:24:01.407Z,20.42
2018-02-08T13:25:03.892Z,20.40
2018-02-08T13:26:06.362Z,20.36
2018-02-08T13:27:08.844Z,20.34
2018-02-08T13:28:11.306Z,20.31
2018-02-08T13:29:13.771Z,20.31